• Join FlightAware (Why Join?)
  • Login
  • US Flag 
01:37PM EDT


 

Airport Tracker/Info


-or-


 

Live Flight TrackerFlight Track Log ✈ JIA2328 ✈ 01-May-2013 ✈ KCLT - KOAJ

Flight Track Log - Related Links

Times and Time Zones

All times are in EDT time to prevent confusion due to time zone crossing. See the JIA2328 flight status page for this flight to view local times or setup timezone preferences in your user account.

Time Position Orientation Groundspeed Altitude Reporting Facility
EDT Latitude Longitude Course Direction KTS MPH feet Rate Location/Type
06:19PM 35.2328 -80.9392 106° East 155 178 1,600  Level Atlanta Center
06:20PM 35.2597 -80.9331 10° North 164 189 2,700 1,920 Climbing Atlanta Center
06:21PM 35.3044 -80.8881 39° Northeast 244 281 5,000 2,340 Climbing Atlanta Center
06:22PM 35.1000 -80.6470 90° East  Level FlightAware Approximate
06:22PM 35.2981 -80.8019 95° East 267 307 7,500  Level Atlanta Center
06:23PM 35.0702 -80.5289 109° East  Level FlightAware Approximate
06:23PM 35.2911 -80.7056 95° East 277 319 9,300  Level Atlanta Center
06:24PM 35.0451 -80.4091 106° East  Level FlightAware Approximate
06:24PM 35.2597 -80.6203 114° Southeast 277 319 11,600  Level Atlanta Center
06:25PM 35.0168 -80.2898 106° East  Level FlightAware Approximate
06:25PM 35.2092 -80.5358 126° Southeast 296 341 13,800  Level Atlanta Center
06:26PM 35.1611 -80.4542 126° Southeast 308 354 15,600 1,560 Climbing Atlanta Center
06:28PM 35.0683 -80.2942 125° Southeast 308 354 18,200 1,200 Climbing Washington Center
06:29PM 35.0175 -80.2025 124° Southeast 329 379 19,000 360 Climbing Washington Center
06:30PM 34.9736 -80.1011 118° Southeast 334 384 19,000  Level Washington Center
06:31PM 34.9542 -80.0064 104° East 328 377 19,000  Level Washington Center
06:32PM 34.9369 -79.9014 101° East 315 362 19,000  Level Washington Center
06:33PM 34.9431 -79.7903 86° East 309 356 19,000  Level Washington Center
06:34PM 34.9469 -79.6792 88° East 319 367 19,000  Level Washington Center
06:35PM 34.9547 -79.5756 85° East 314 361 19,000  Level Washington Center
06:36PM 34.9583 -79.4642 88° East 314 361 19,000  Level Washington Center
06:37PM 34.9639 -79.3556 86° East 314 361 19,000  Level Washington Center
06:38PM 34.9694 -79.2442 86° East 319 367 19,000  Level Washington Center
06:39PM 34.9728 -79.1356 88° East 324 373 19,000  Level Washington Center
06:40PM 34.9781 -79.0267 87° East 324 373 19,000  Level Washington Center
06:41PM 34.9833 -78.9153 87° East 324 373 19,000 -180 Level Washington Center
06:42PM 34.9736 -78.8033 96° East 324 373 18,700 -660 Descending Washington Center
06:43PM 34.9619 -78.6967 98° East 329 379 17,700 -1,020 Descending Washington Center
06:44PM 34.9503 -78.5872 97° East 329 379 16,700 -960 Descending Washington Center
06:45PM 34.9361 -78.4803 99° East 329 379 15,900 -1,140 Descending Washington Center
06:46PM 34.9239 -78.3733 98° East 323 372 14,500 -1,500 Descending Washington Center
06:47PM 34.9117 -78.2717 98° East 312 359 12,900 -1,860 Descending Washington Center
06:48PM 34.8992 -78.1725 99° East 305 351 10,800 -2,100 Descending Washington Center
06:49PM 34.8783 -78.0833 106° East 285 328 8,800 -2,040 Descending Washington Center
06:50PM 34.8381 -78.0036 122° Southeast 274 315 6,900 -2,040 Descending Washington Center
06:51PM 34.7853 -77.9336 133° Southeast 263 303 4,800 -2,040 Descending Washington Center
06:52PM 34.7386 -77.8717 133° Southeast 250 288 2,900 -1,380 Descending Washington Center
06:53PM 34.7022 -77.8100 126° Southeast 244 281 2,100 -420 Descending Washington Center
06:54PM 34.7031 -77.7569 89° East 185 213 2,100  Level Washington Center